sensor_id;sensor_type;location;lat;lon;timestamp;P1;durP1;ratioP1;P2;durP2;ratioP2
72590;SDS011;60625;51.212;5.952;2023-06-10T00:00:37;7.90;;;5.60;;
72590;SDS011;60625;51.212;5.952;2023-06-10T00:05:38;11.30;;;6.60;;
72590;SDS011;60625;51.212;5.952;2023-06-10T00:10:40;12.50;;;6.80;;
72590;SDS011;60625;51.212;5.952;2023-06-10T00:15:41;12.10;;;6.50;;
72590;SDS011;60625;51.212;5.952;2023-06-10T00:20:41;9.20;;;7.20;;
72590;SDS011;60625;51.212;5.952;2023-06-10T00:25:42;9.00;;;6.90;;
72590;SDS011;60625;51.212;5.952;2023-06-10T00:30:43;10.30;;;7.10;;
72590;SDS011;60625;51.212;5.952;2023-06-10T00:35:44;11.90;;;7.10;;
72590;SDS011;60625;51.212;5.952;2023-06-10T00:40:45;11.20;;;7.60;;
72590;SDS011;60625;51.212;5.952;2023-06-10T00:45:45;9.90;;;6.90;;
72590;SDS011;60625;51.212;5.952;2023-06-10T00:50:47;10.70;;;7.30;;
72590;SDS011;60625;51.212;5.952;2023-06-10T00:55:47;10.30;;;6.60;;
72590;SDS011;60625;51.212;5.952;2023-06-10T01:00:48;115.30;;;79.50;;
72590;SDS011;60625;51.212;5.952;2023-06-10T01:06:14;75.80;;;52.90;;
72590;SDS011;60625;51.212;5.952;2023-06-10T01:11:22;63.10;;;41.90;;
72590;SDS011;60625;51.212;5.952;2023-06-10T01:16:27;28.20;;;19.50;;
72590;SDS011;60625;51.212;5.952;2023-06-10T01:21:28;13.50;;;10.20;;
72590;SDS011;60625;51.212;5.952;2023-06-10T01:26:32;14.70;;;11.60;;
72590;SDS011;60625;51.212;5.952;2023-06-10T01:31:49;14.20;;;8.50;;
72590;SDS011;60625;51.212;5.952;2023-06-10T01:37:13;12.10;;;8.20;;
72590;SDS011;60625;51.212;5.952;2023-06-10T01:42:17;10.90;;;8.30;;
72590;SDS011;60625;51.212;5.952;2023-06-10T01:47:18;11.70;;;9.00;;
72590;SDS011;60625;51.212;5.952;2023-06-10T01:52:21;11.10;;;7.80;;
72590;SDS011;60625;51.212;5.952;2023-06-10T01:57:22;10.00;;;7.50;;
72590;SDS011;60625;51.212;5.952;2023-06-10T02:02:23;9.80;;;6.90;;
72590;SDS011;60625;51.212;5.952;2023-06-10T02:07:25;9.80;;;7.40;;
72590;SDS011;60625;51.212;5.952;2023-06-10T02:12:25;10.30;;;7.50;;
72590;SDS011;60625;51.212;5.952;2023-06-10T02:17:26;12.10;;;6.90;;
72590;SDS011;60625;51.212;5.952;2023-06-10T02:22:26;9.40;;;7.00;;
72590;SDS011;60625;51.212;5.952;2023-06-10T02:27:27;11.60;;;8.10;;
72590;SDS011;60625;51.212;5.952;2023-06-10T02:32:28;10.70;;;8.10;;
72590;SDS011;60625;51.212;5.952;2023-06-10T02:37:29;11.60;;;7.80;;
72590;SDS011;60625;51.212;5.952;2023-06-10T02:42:30;12.10;;;7.90;;
72590;SDS011;60625;51.212;5.952;2023-06-10T02:47:33;13.20;;;8.50;;
72590;SDS011;60625;51.212;5.952;2023-06-10T02:52:35;12.80;;;8.90;;
72590;SDS011;60625;51.212;5.952;2023-06-10T02:57:35;12.40;;;8.90;;
72590;SDS011;60625;51.212;5.952;2023-06-10T03:02:37;12.40;;;8.80;;
72590;SDS011;60625;51.212;5.952;2023-06-10T03:07:40;10.90;;;7.80;;
72590;SDS011;60625;51.212;5.952;2023-06-10T03:12:41;11.50;;;8.30;;
72590;SDS011;60625;51.212;5.952;2023-06-10T03:17:42;12.90;;;9.10;;
72590;SDS011;60625;51.212;5.952;2023-06-10T03:22:43;12.20;;;7.90;;
72590;SDS011;60625;51.212;5.952;2023-06-10T03:27:44;11.80;;;8.90;;
72590;SDS011;60625;51.212;5.952;2023-06-10T03:32:46;12.00;;;9.20;;
72590;SDS011;60625;51.212;5.952;2023-06-10T03:37:48;14.10;;;9.10;;
72590;SDS011;60625;51.212;5.952;2023-06-10T03:42:49;16.90;;;9.20;;
72590;SDS011;60625;51.212;5.952;2023-06-10T03:47:51;13.40;;;8.90;;
72590;SDS011;60625;51.212;5.952;2023-06-10T03:52:55;10.70;;;8.40;;
72590;SDS011;60625;51.212;5.952;2023-06-10T03:57:57;13.10;;;8.30;;
72590;SDS011;60625;51.212;5.952;2023-06-10T04:02:58;12.10;;;8.90;;
72590;SDS011;60625;51.212;5.952;2023-06-10T04:08:03;12.80;;;9.00;;
72590;SDS011;60625;51.212;5.952;2023-06-10T04:13:05;11.40;;;8.00;;
72590;SDS011;60625;51.212;5.952;2023-06-10T04:18:10;12.90;;;9.70;;
72590;SDS011;60625;51.212;5.952;2023-06-10T04:23:11;11.80;;;8.30;;
72590;SDS011;60625;51.212;5.952;2023-06-10T04:28:12;10.40;;;8.10;;
72590;SDS011;60625;51.212;5.952;2023-06-10T04:33:13;11.60;;;9.30;;
72590;SDS011;60625;51.212;5.952;2023-06-10T04:38:14;14.90;;;9.70;;
72590;SDS011;60625;51.212;5.952;2023-06-10T04:43:15;13.10;;;9.40;;
72590;SDS011;60625;51.212;5.952;2023-06-10T04:48:17;11.90;;;8.60;;
72590;SDS011;60625;51.212;5.952;2023-06-10T04:53:18;13.30;;;8.40;;
72590;SDS011;60625;51.212;5.952;2023-06-10T04:58:20;14.00;;;9.80;;
72590;SDS011;60625;51.212;5.952;2023-06-10T05:03:20;14.90;;;9.90;;
72590;SDS011;60625;51.212;5.952;2023-06-10T05:08:21;13.40;;;8.40;;
72590;SDS011;60625;51.212;5.952;2023-06-10T05:13:21;12.10;;;8.60;;
72590;SDS011;60625;51.212;5.952;2023-06-10T05:18:22;14.00;;;9.00;;
72590;SDS011;60625;51.212;5.952;2023-06-10T05:23:22;15.50;;;10.70;;
72590;SDS011;60625;51.212;5.952;2023-06-10T05:28:23;15.60;;;10.70;;
72590;SDS011;60625;51.212;5.952;2023-06-10T05:33:24;12.60;;;9.00;;
72590;SDS011;60625;51.212;5.952;2023-06-10T05:38:24;11.80;;;8.70;;
72590;SDS011;60625;51.212;5.952;2023-06-10T05:43:25;15.20;;;8.50;;
72590;SDS011;60625;51.212;5.952;2023-06-10T05:48:26;12.10;;;8.70;;
72590;SDS011;60625;51.212;5.952;2023-06-10T05:53:26;13.90;;;9.90;;
72590;SDS011;60625;51.212;5.952;2023-06-10T05:58:27;12.40;;;9.30;;
72590;SDS011;60625;51.212;5.952;2023-06-10T06:03:27;12.00;;;8.10;;
72590;SDS011;60625;51.212;5.952;2023-06-10T06:08:29;11.30;;;8.10;;
72590;SDS011;60625;51.212;5.952;2023-06-10T06:13:30;13.70;;;9.20;;
72590;SDS011;60625;51.212;5.952;2023-06-10T06:18:31;15.30;;;9.10;;
72590;SDS011;60625;51.212;5.952;2023-06-10T06:23:31;12.50;;;8.50;;
72590;SDS011;60625;51.212;5.952;2023-06-10T06:28:31;14.00;;;9.20;;
72590;SDS011;60625;51.212;5.952;2023-06-10T06:33:32;12.50;;;8.90;;
72590;SDS011;60625;51.212;5.952;2023-06-10T06:38:34;14.10;;;8.80;;
72590;SDS011;60625;51.212;5.952;2023-06-10T06:43:35;11.40;;;8.20;;
72590;SDS011;60625;51.212;5.952;2023-06-10T06:48:54;13.90;;;8.70;;
72590;SDS011;60625;51.212;5.952;2023-06-10T06:53:55;13.50;;;9.00;;
72590;SDS011;60625;51.212;5.952;2023-06-10T06:58:58;11.80;;;7.90;;
72590;SDS011;60625;51.212;5.952;2023-06-10T07:03:59;11.60;;;8.10;;
72590;SDS011;60625;51.212;5.952;2023-06-10T07:08:59;14.20;;;7.80;;
72590;SDS011;60625;51.212;5.952;2023-06-10T07:13:59;15.10;;;7.60;;
72590;SDS011;60625;51.212;5.952;2023-06-10T07:19:00;11.70;;;7.50;;
72590;SDS011;60625;51.212;5.952;2023-06-10T07:24:01;15.20;;;7.20;;
72590;SDS011;60625;51.212;5.952;2023-06-10T07:29:01;10.90;;;6.70;;
72590;SDS011;60625;51.212;5.952;2023-06-10T07:34:01;11.40;;;6.70;;
72590;SDS011;60625;51.212;5.952;2023-06-10T07:39:02;10.80;;;6.50;;
72590;SDS011;60625;51.212;5.952;2023-06-10T07:44:03;9.90;;;6.40;;
72590;SDS011;60625;51.212;5.952;2023-06-10T07:49:04;11.10;;;6.10;;
72590;SDS011;60625;51.212;5.952;2023-06-10T07:54:04;9.40;;;6.10;;
72590;SDS011;60625;51.212;5.952;2023-06-10T07:59:05;10.50;;;6.20;;
72590;SDS011;60625;51.212;5.952;2023-06-10T08:04:06;15.00;;;6.40;;
72590;SDS011;60625;51.212;5.952;2023-06-10T08:09:06;9.90;;;6.10;;
72590;SDS011;60625;51.212;5.952;2023-06-10T08:14:07;10.90;;;6.60;;
72590;SDS011;60625;51.212;5.952;2023-06-10T08:19:08;10.30;;;7.30;;
72590;SDS011;60625;51.212;5.952;2023-06-10T08:24:09;14.80;;;7.70;;
72590;SDS011;60625;51.212;5.952;2023-06-10T08:29:12;10.70;;;6.70;;
72590;SDS011;60625;51.212;5.952;2023-06-10T08:34:15;10.30;;;6.40;;
72590;SDS011;60625;51.212;5.952;2023-06-10T08:39:16;10.00;;;6.80;;
72590;SDS011;60625;51.212;5.952;2023-06-10T08:44:36;12.20;;;7.60;;
72590;SDS011;60625;51.212;5.952;2023-06-10T08:49:43;12.10;;;7.40;;
72590;SDS011;60625;51.212;5.952;2023-06-10T08:54:59;10.80;;;7.10;;
72590;SDS011;60625;51.212;5.952;2023-06-10T09:00:00;13.00;;;6.70;;
72590;SDS011;60625;51.212;5.952;2023-06-10T09:05:02;10.50;;;7.90;;
72590;SDS011;60625;51.212;5.952;2023-06-10T09:10:03;12.00;;;7.80;;
72590;SDS011;60625;51.212;5.952;2023-06-10T09:15:08;10.80;;;7.10;;
72590;SDS011;60625;51.212;5.952;2023-06-10T09:20:10;11.50;;;6.50;;
72590;SDS011;60625;51.212;5.952;2023-06-10T09:25:12;12.40;;;6.40;;
72590;SDS011;60625;51.212;5.952;2023-06-10T09:30:24;10.50;;;6.60;;
72590;SDS011;60625;51.212;5.952;2023-06-10T09:35:29;13.40;;;7.90;;
72590;SDS011;60625;51.212;5.952;2023-06-10T09:40:31;10.20;;;7.20;;
72590;SDS011;60625;51.212;5.952;2023-06-10T09:45:32;12.30;;;7.70;;
72590;SDS011;60625;51.212;5.952;2023-06-10T09:50:33;17.10;;;7.60;;
72590;SDS011;60625;51.212;5.952;2023-06-10T09:55:37;16.00;;;7.70;;
72590;SDS011;60625;51.212;5.952;2023-06-10T10:00:38;11.80;;;7.60;;
72590;SDS011;60625;51.212;5.952;2023-06-10T10:05:39;14.00;;;8.00;;
72590;SDS011;60625;51.212;5.952;2023-06-10T10:10:39;14.90;;;7.70;;
72590;SDS011;60625;51.212;5.952;2023-06-10T10:15:41;10.60;;;7.40;;
72590;SDS011;60625;51.212;5.952;2023-06-10T10:20:47;9.80;;;6.10;;
72590;SDS011;60625;51.212;5.952;2023-06-10T10:25:53;10.40;;;7.30;;
72590;SDS011;60625;51.212;5.952;2023-06-10T10:30:59;11.10;;;7.10;;
72590;SDS011;60625;51.212;5.952;2023-06-10T10:36:10;11.80;;;7.30;;
72590;SDS011;60625;51.212;5.952;2023-06-10T10:41:13;10.70;;;7.10;;
72590;SDS011;60625;51.212;5.952;2023-06-10T10:46:15;15.00;;;6.90;;
72590;SDS011;60625;51.212;5.952;2023-06-10T10:51:17;13.90;;;7.00;;
72590;SDS011;60625;51.212;5.952;2023-06-10T10:56:18;11.90;;;6.40;;
72590;SDS011;60625;51.212;5.952;2023-06-10T11:01:19;9.40;;;6.40;;
72590;SDS011;60625;51.212;5.952;2023-06-10T11:06:20;11.10;;;6.50;;
72590;SDS011;60625;51.212;5.952;2023-06-10T11:11:23;12.30;;;6.00;;
72590;SDS011;60625;51.212;5.952;2023-06-10T11:16:29;10.20;;;5.90;;
72590;SDS011;60625;51.212;5.952;2023-06-10T11:21:29;12.60;;;6.20;;
72590;SDS011;60625;51.212;5.952;2023-06-10T11:26:30;12.00;;;6.40;;
72590;SDS011;60625;51.212;5.952;2023-06-10T11:36:42;8.10;;;6.50;;
72590;SDS011;60625;51.212;5.952;2023-06-10T11:41:46;9.80;;;6.60;;
72590;SDS011;60625;51.212;5.952;2023-06-10T11:46:48;8.10;;;6.00;;
72590;SDS011;60625;51.212;5.952;2023-06-10T11:51:50;8.40;;;6.60;;
72590;SDS011;60625;51.212;5.952;2023-06-10T11:56:57;10.70;;;6.20;;
72590;SDS011;60625;51.212;5.952;2023-06-10T12:02:00;9.10;;;6.50;;
72590;SDS011;60625;51.212;5.952;2023-06-10T12:07:17;13.60;;;6.70;;
72590;SDS011;60625;51.212;5.952;2023-06-10T12:12:23;9.50;;;6.30;;
72590;SDS011;60625;51.212;5.952;2023-06-10T12:22:40;11.90;;;7.00;;
72590;SDS011;60625;51.212;5.952;2023-06-10T12:27:53;12.40;;;7.50;;
72590;SDS011;60625;51.212;5.952;2023-06-10T12:32:57;13.20;;;7.50;;
72590;SDS011;60625;51.212;5.952;2023-06-10T12:38:02;11.10;;;6.20;;
72590;SDS011;60625;51.212;5.952;2023-06-10T12:43:11;9.00;;;5.70;;
72590;SDS011;60625;51.212;5.952;2023-06-10T12:48:17;10.00;;;6.80;;
72590;SDS011;60625;51.212;5.952;2023-06-10T12:53:20;9.40;;;6.90;;
72590;SDS011;60625;51.212;5.952;2023-06-10T12:58:23;9.10;;;6.60;;
72590;SDS011;60625;51.212;5.952;2023-06-10T13:03:24;11.00;;;6.30;;
72590;SDS011;60625;51.212;5.952;2023-06-10T13:08:24;9.60;;;6.80;;
72590;SDS011;60625;51.212;5.952;2023-06-10T13:13:25;9.30;;;6.10;;
72590;SDS011;60625;51.212;5.952;2023-06-10T13:18:26;9.20;;;6.50;;
72590;SDS011;60625;51.212;5.952;2023-06-10T13:23:27;8.60;;;6.40;;
72590;SDS011;60625;51.212;5.952;2023-06-10T13:28:28;10.40;;;7.10;;
72590;SDS011;60625;51.212;5.952;2023-06-10T13:33:29;10.30;;;6.30;;
72590;SDS011;60625;51.212;5.952;2023-06-10T13:38:29;10.30;;;6.50;;
72590;SDS011;60625;51.212;5.952;2023-06-10T13:43:30;7.50;;;5.60;;
72590;SDS011;60625;51.212;5.952;2023-06-10T13:48:31;10.60;;;6.20;;
72590;SDS011;60625;51.212;5.952;2023-06-10T13:53:32;8.50;;;5.80;;
72590;SDS011;60625;51.212;5.952;2023-06-10T13:58:32;8.00;;;5.80;;
72590;SDS011;60625;51.212;5.952;2023-06-10T14:03:38;9.70;;;5.50;;
72590;SDS011;60625;51.212;5.952;2023-06-10T14:08:39;9.60;;;6.40;;
72590;SDS011;60625;51.212;5.952;2023-06-10T14:13:41;8.30;;;6.30;;
72590;SDS011;60625;51.212;5.952;2023-06-10T14:18:41;8.90;;;6.50;;
72590;SDS011;60625;51.212;5.952;2023-06-10T14:23:43;8.40;;;5.80;;
72590;SDS011;60625;51.212;5.952;2023-06-10T14:28:43;8.80;;;6.10;;
72590;SDS011;60625;51.212;5.952;2023-06-10T14:33:44;10.70;;;6.20;;
72590;SDS011;60625;51.212;5.952;2023-06-10T14:38:45;11.90;;;6.80;;
72590;SDS011;60625;51.212;5.952;2023-06-10T14:43:46;8.10;;;6.70;;
72590;SDS011;60625;51.212;5.952;2023-06-10T14:48:47;8.90;;;6.40;;
72590;SDS011;60625;51.212;5.952;2023-06-10T14:53:47;8.90;;;6.40;;
72590;SDS011;60625;51.212;5.952;2023-06-10T14:58:48;15.20;;;6.20;;
72590;SDS011;60625;51.212;5.952;2023-06-10T15:03:48;10.30;;;6.20;;
72590;SDS011;60625;51.212;5.952;2023-06-10T15:08:49;9.10;;;6.90;;
72590;SDS011;60625;51.212;5.952;2023-06-10T15:13:49;11.40;;;6.00;;
72590;SDS011;60625;51.212;5.952;2023-06-10T15:18:50;10.50;;;6.50;;
72590;SDS011;60625;51.212;5.952;2023-06-10T15:23:51;9.70;;;6.20;;
72590;SDS011;60625;51.212;5.952;2023-06-10T15:28:51;11.20;;;6.40;;
72590;SDS011;60625;51.212;5.952;2023-06-10T15:33:52;8.40;;;6.90;;
72590;SDS011;60625;51.212;5.952;2023-06-10T15:38:54;7.20;;;5.90;;
72590;SDS011;60625;51.212;5.952;2023-06-10T15:43:55;10.60;;;5.70;;
72590;SDS011;60625;51.212;5.952;2023-06-10T15:48:56;10.10;;;5.90;;
72590;SDS011;60625;51.212;5.952;2023-06-10T15:53:57;10.90;;;6.30;;
72590;SDS011;60625;51.212;5.952;2023-06-10T15:58:58;8.10;;;5.90;;
72590;SDS011;60625;51.212;5.952;2023-06-10T16:04:00;8.50;;;6.40;;
72590;SDS011;60625;51.212;5.952;2023-06-10T16:09:01;12.00;;;7.00;;
72590;SDS011;60625;51.212;5.952;2023-06-10T16:14:02;9.60;;;6.40;;
72590;SDS011;60625;51.212;5.952;2023-06-10T16:19:03;8.70;;;6.10;;
72590;SDS011;60625;51.212;5.952;2023-06-10T16:24:04;8.80;;;6.40;;
72590;SDS011;60625;51.212;5.952;2023-06-10T16:29:04;10.30;;;6.60;;
72590;SDS011;60625;51.212;5.952;2023-06-10T16:34:05;8.50;;;6.30;;
72590;SDS011;60625;51.212;5.952;2023-06-10T16:39:05;9.20;;;6.30;;
72590;SDS011;60625;51.212;5.952;2023-06-10T16:44:06;8.60;;;6.50;;
72590;SDS011;60625;51.212;5.952;2023-06-10T16:49:06;12.20;;;6.60;;
72590;SDS011;60625;51.212;5.952;2023-06-10T16:54:07;10.80;;;6.90;;
72590;SDS011;60625;51.212;5.952;2023-06-10T16:59:08;9.20;;;5.80;;
72590;SDS011;60625;51.212;5.952;2023-06-10T17:04:09;8.90;;;5.60;;
72590;SDS011;60625;51.212;5.952;2023-06-10T17:09:10;8.20;;;6.10;;
72590;SDS011;60625;51.212;5.952;2023-06-10T17:14:11;9.60;;;6.80;;
72590;SDS011;60625;51.212;5.952;2023-06-10T17:19:11;12.50;;;6.70;;
72590;SDS011;60625;51.212;5.952;2023-06-10T17:24:13;9.00;;;6.50;;
72590;SDS011;60625;51.212;5.952;2023-06-10T17:29:15;9.80;;;5.80;;
72590;SDS011;60625;51.212;5.952;2023-06-10T17:34:17;7.80;;;5.90;;
72590;SDS011;60625;51.212;5.952;2023-06-10T17:39:18;12.10;;;6.00;;
72590;SDS011;60625;51.212;5.952;2023-06-10T17:44:20;11.10;;;6.60;;
72590;SDS011;60625;51.212;5.952;2023-06-10T17:49:27;7.70;;;6.30;;
72590;SDS011;60625;51.212;5.952;2023-06-10T17:54:28;8.30;;;6.60;;
72590;SDS011;60625;51.212;5.952;2023-06-10T17:59:29;8.30;;;6.10;;
72590;SDS011;60625;51.212;5.952;2023-06-10T18:04:29;9.30;;;6.00;;
72590;SDS011;60625;51.212;5.952;2023-06-10T18:09:29;8.50;;;6.70;;
72590;SDS011;60625;51.212;5.952;2023-06-10T18:14:31;11.50;;;6.30;;
72590;SDS011;60625;51.212;5.952;2023-06-10T18:19:31;9.10;;;5.60;;
72590;SDS011;60625;51.212;5.952;2023-06-10T18:24:32;8.00;;;5.80;;
72590;SDS011;60625;51.212;5.952;2023-06-10T18:29:32;8.80;;;6.60;;
72590;SDS011;60625;51.212;5.952;2023-06-10T18:34:33;10.50;;;6.80;;
72590;SDS011;60625;51.212;5.952;2023-06-10T18:39:35;9.10;;;6.30;;
72590;SDS011;60625;51.212;5.952;2023-06-10T18:44:36;8.80;;;6.70;;
72590;SDS011;60625;51.212;5.952;2023-06-10T18:49:37;9.80;;;6.00;;
72590;SDS011;60625;51.212;5.952;2023-06-10T18:54:38;8.90;;;6.30;;
72590;SDS011;60625;51.212;5.952;2023-06-10T18:59:40;9.80;;;6.80;;
72590;SDS011;60625;51.212;5.952;2023-06-10T19:04:41;13.10;;;6.60;;
72590;SDS011;60625;51.212;5.952;2023-06-10T19:09:42;8.70;;;5.80;;
72590;SDS011;60625;51.212;5.952;2023-06-10T19:14:42;9.30;;;5.70;;
72590;SDS011;60625;51.212;5.952;2023-06-10T19:19:43;12.30;;;5.80;;
72590;SDS011;60625;51.212;5.952;2023-06-10T19:24:43;10.90;;;6.20;;
72590;SDS011;60625;51.212;5.952;2023-06-10T19:29:44;11.90;;;6.00;;
72590;SDS011;60625;51.212;5.952;2023-06-10T19:34:45;10.80;;;6.00;;
72590;SDS011;60625;51.212;5.952;2023-06-10T19:39:45;11.30;;;5.80;;
72590;SDS011;60625;51.212;5.952;2023-06-10T19:44:46;10.50;;;6.00;;
72590;SDS011;60625;51.212;5.952;2023-06-10T19:49:46;9.10;;;6.30;;
72590;SDS011;60625;51.212;5.952;2023-06-10T19:54:47;10.00;;;5.40;;
72590;SDS011;60625;51.212;5.952;2023-06-10T19:59:47;10.10;;;5.50;;
72590;SDS011;60625;51.212;5.952;2023-06-10T20:04:48;8.50;;;6.10;;
72590;SDS011;60625;51.212;5.952;2023-06-10T20:09:49;14.70;;;6.20;;
72590;SDS011;60625;51.212;5.952;2023-06-10T20:14:53;9.80;;;6.10;;
72590;SDS011;60625;51.212;5.952;2023-06-10T20:19:54;11.70;;;6.10;;
72590;SDS011;60625;51.212;5.952;2023-06-10T20:24:57;13.80;;;7.00;;
72590;SDS011;60625;51.212;5.952;2023-06-10T20:29:58;7.50;;;4.90;;
72590;SDS011;60625;51.212;5.952;2023-06-10T20:34:59;10.40;;;6.50;;
72590;SDS011;60625;51.212;5.952;2023-06-10T20:40:03;11.30;;;5.60;;
72590;SDS011;60625;51.212;5.952;2023-06-10T20:45:06;11.60;;;6.20;;
72590;SDS011;60625;51.212;5.952;2023-06-10T20:50:08;15.50;;;6.50;;
72590;SDS011;60625;51.212;5.952;2023-06-10T20:55:09;13.40;;;6.50;;
72590;SDS011;60625;51.212;5.952;2023-06-10T21:00:11;14.10;;;5.10;;
72590;SDS011;60625;51.212;5.952;2023-06-10T21:05:12;11.70;;;6.10;;
72590;SDS011;60625;51.212;5.952;2023-06-10T21:10:13;9.40;;;6.10;;
72590;SDS011;60625;51.212;5.952;2023-06-10T21:15:15;10.50;;;6.10;;
72590;SDS011;60625;51.212;5.952;2023-06-10T21:20:17;9.60;;;6.00;;
72590;SDS011;60625;51.212;5.952;2023-06-10T21:25:18;10.30;;;6.10;;
72590;SDS011;60625;51.212;5.952;2023-06-10T21:30:18;9.90;;;6.90;;
72590;SDS011;60625;51.212;5.952;2023-06-10T21:35:18;10.80;;;5.90;;
72590;SDS011;60625;51.212;5.952;2023-06-10T21:40:19;12.60;;;6.60;;
72590;SDS011;60625;51.212;5.952;2023-06-10T21:45:19;10.30;;;6.50;;
72590;SDS011;60625;51.212;5.952;2023-06-10T21:50:20;9.60;;;6.20;;
72590;SDS011;60625;51.212;5.952;2023-06-10T21:55:20;10.90;;;6.90;;
72590;SDS011;60625;51.212;5.952;2023-06-10T22:00:21;9.90;;;6.50;;
72590;SDS011;60625;51.212;5.952;2023-06-10T22:05:22;9.70;;;6.10;;
72590;SDS011;60625;51.212;5.952;2023-06-10T22:10:23;9.20;;;6.20;;
72590;SDS011;60625;51.212;5.952;2023-06-10T22:15:23;12.90;;;6.90;;
72590;SDS011;60625;51.212;5.952;2023-06-10T22:20:24;9.20;;;7.10;;
72590;SDS011;60625;51.212;5.952;2023-06-10T22:25:26;16.50;;;7.20;;
72590;SDS011;60625;51.212;5.952;2023-06-10T22:30:26;9.50;;;6.30;;
72590;SDS011;60625;51.212;5.952;2023-06-10T22:35:27;10.20;;;6.20;;
72590;SDS011;60625;51.212;5.952;2023-06-10T22:40:27;10.50;;;6.90;;
72590;SDS011;60625;51.212;5.952;2023-06-10T22:45:28;10.50;;;6.30;;
72590;SDS011;60625;51.212;5.952;2023-06-10T22:50:28;12.10;;;6.80;;
72590;SDS011;60625;51.212;5.952;2023-06-10T22:55:29;11.10;;;7.00;;
72590;SDS011;60625;51.212;5.952;2023-06-10T23:00:29;10.50;;;6.80;;
72590;SDS011;60625;51.212;5.952;2023-06-10T23:05:30;9.30;;;6.30;;
72590;SDS011;60625;51.212;5.952;2023-06-10T23:10:31;11.70;;;7.60;;
72590;SDS011;60625;51.212;5.952;2023-06-10T23:15:31;11.10;;;7.90;;
72590;SDS011;60625;51.212;5.952;2023-06-10T23:20:31;10.80;;;7.40;;
72590;SDS011;60625;51.212;5.952;2023-06-10T23:25:33;9.80;;;6.70;;
72590;SDS011;60625;51.212;5.952;2023-06-10T23:30:34;8.80;;;6.90;;
72590;SDS011;60625;51.212;5.952;2023-06-10T23:35:35;10.40;;;6.40;;
72590;SDS011;60625;51.212;5.952;2023-06-10T23:40:35;10.70;;;7.40;;
72590;SDS011;60625;51.212;5.952;2023-06-10T23:45:36;12.20;;;7.50;;
72590;SDS011;60625;51.212;5.952;2023-06-10T23:50:36;11.00;;;7.20;;
72590;SDS011;60625;51.212;5.952;2023-06-10T23:55:38;11.70;;;7.40;;
